Time;durP1;ratioP1;P1;durP2;ratioP2;P2;SDS_P1;SDS_P2;PMS_P1;PMS_P2;Temp;Humidity;BMP_temperature;BMP_pressure;BME280_temperature;BME280_humidity;BME280_pressure;Samples;Min_cycle;Max_cycle;Signal;HPM_P1;HPM_P2
2023/04/04 00:00:59;;;;;;;8.07;2.63;;;;;;;9.34;55.19;94084.38;5000613;28;20036;-93
2023/04/04 00:03:25;;;;;;;7.60;2.40;;;;;;;9.33;54.98;94088.06;5000724;28;20053;-94
2023/04/04 00:05:50;;;;;;;8.73;2.53;;;;;;;9.52;54.72;94071.78;5003925;28;20036;-94
2023/04/04 00:08:16;;;;;;;9.70;2.83;;;;;;;9.59;53.83;94074.88;5000629;28;20026;-94
2023/04/04 00:10:41;;;;;;;9.70;2.78;;;;;;;9.74;53.54;94081.88;5002178;28;20069;-93
2023/04/04 00:13:08;;;;;;;8.13;2.42;;;;;;;9.87;53.40;94083.13;5000490;28;20030;-93
2023/04/04 00:15:35;;;;;;;10.00;2.55;;;;;;;9.51;54.00;94078.81;5001488;28;20355;-93
2023/04/04 00:18:02;;;;;;;14.95;2.80;;;;;;;9.68;54.17;94073.28;5001343;28;20030;-94
2023/04/04 00:20:28;;;;;;;8.23;2.13;;;;;;;9.58;53.95;94068.88;5001359;28;20022;-93
2023/04/04 00:22:53;;;;;;;4.45;2.13;;;;;;;9.69;52.54;94064.38;5004549;28;20049;-93
2023/04/04 00:25:19;;;;;;;11.13;2.30;;;;;;;9.58;53.73;94068.88;5021187;28;20025;-94
2023/04/04 00:27:44;;;;;;;18.67;2.75;;;;;;;9.59;53.12;94062.59;5004573;28;20031;-93
2023/04/04 00:30:11;;;;;;;7.13;2.70;;;;;;;9.55;53.34;94071.22;5001209;28;20069;-92
2023/04/04 00:32:36;;;;;;;7.15;2.30;;;;;;;9.67;53.01;94071.72;5001321;28;20082;-92
2023/04/04 00:35:02;;;;;;;8.75;2.47;;;;;;;9.43;53.83;94072.31;5003124;28;20034;-92
2023/04/04 00:37:27;;;;;;;10.60;3.05;;;;;;;9.50;52.95;94071.25;5003184;28;20117;-93
2023/04/04 00:39:53;;;;;;;10.80;2.67;;;;;;;9.18;53.30;94062.72;5003429;28;20076;-92
2023/04/04 00:42:18;;;;;;;14.43;2.55;;;;;;;9.15;53.94;94071.09;5003021;28;20030;-92
2023/04/04 00:44:44;;;;;;;8.57;2.40;;;;;;;9.40;52.65;94065.00;5005208;28;20025;-91
2023/04/04 00:47:10;;;;;;;16.08;2.60;;;;;;;9.39;52.11;94060.03;5003242;28;20025;-94
2023/04/04 00:49:36;;;;;;;13.50;2.50;;;;;;;9.59;52.03;94061.78;5019963;28;20455;-92
2023/04/04 00:52:02;;;;;;;11.80;1.95;;;;;;;9.43;51.55;94056.63;5019047;28;20026;-92
2023/04/04 00:54:29;;;;;;;9.02;2.28;;;;;;;9.37;52.42;94062.94;5002948;28;20056;-92
2023/04/04 00:57:02;;;;;;;12.45;2.15;;;;;;;9.50;52.92;94058.94;5006213;28;20029;-93
2023/04/04 00:59:27;;;;;;;;;;;;;;;9.83;51.83;94061.19;5022831;28;20037;-92
2023/04/04 01:01:53;;;;;;;10.52;2.60;;;;;;;9.17;52.88;94056.69;5022096;28;19909;-91
2023/04/04 01:04:18;;;;;;;8.43;2.58;;;;;;;9.25;52.11;94057.22;5039716;28;20172;-92
2023/04/04 01:06:44;;;;;;;6.82;2.85;;;;;;;9.16;52.58;94059.59;5020881;28;20033;-92
2023/04/04 01:09:11;;;;;;;6.32;2.10;;;;;;;9.68;50.92;94056.78;5018878;28;20109;-92
2023/04/04 01:11:37;;;;;;;15.40;3.05;;;;;;;9.25;51.16;94057.22;5003689;28;20028;-92
2023/04/04 01:14:02;;;;;;;11.30;2.40;;;;;;;9.32;50.68;94061.13;5002465;28;20120;-92
2023/04/04 01:16:28;;;;;;;9.80;2.10;;;;;;;9.24;51.16;94051.19;5002512;28;20041;-91
2023/04/04 01:18:53;;;;;;;7.38;1.98;;;;;;;9.47;50.69;94056.88;5005736;28;20021;-92
2023/04/04 01:21:20;;;;;;;7.72;2.58;;;;;;;9.73;50.94;94057.53;5021906;28;20025;-91
2023/04/04 01:24:01;;;;;;;12.65;2.67;;;;;;;9.67;51.26;94055.22;5005959;28;20021;-93
2023/04/04 01:26:27;;;;;;;16.23;2.95;;;;;;;9.13;52.15;94058.28;5018442;28;20022;-93
2023/04/04 01:28:53;;;;;;;11.35;2.72;;;;;;;9.40;52.49;94059.78;5002094;28;20037;-90
2023/04/04 01:31:28;;;;;;;10.60;2.80;;;;;;;9.41;52.60;94055.34;5018265;28;20432;-92
2023/04/04 01:34:02;;;;;;;8.40;2.90;;;;;;;9.23;53.76;94059.31;5021804;28;20021;-93
2023/04/04 01:36:38;;;;;;;7.38;2.55;;;;;;;9.56;52.87;94060.53;5021581;28;20026;-92
2023/04/04 01:39:12;;;;;;;15.23;2.60;;;;;;;9.54;53.78;94059.22;5005673;28;20181;-92
2023/04/04 01:41:38;;;;;;;9.00;2.67;;;;;;;9.44;53.81;94065.25;5021445;28;20048;-92
2023/04/04 01:44:04;;;;;;;9.48;2.75;;;;;;;8.55;55.80;94062.00;5017633;28;20029;-92
2023/04/04 01:46:30;;;;;;;9.20;2.92;;;;;;;8.67;55.75;94061.75;5017729;28;20037;-92
2023/04/04 01:48:55;;;;;;;6.05;2.83;;;;;;;8.61;56.58;94058.38;5017918;28;20068;-92
2023/04/04 01:51:21;;;;;;;18.63;3.13;;;;;;;9.48;54.16;94059.25;5001779;28;20116;-93
2023/04/04 01:53:46;;;;;;;7.55;3.35;;;;;;;9.05;55.90;94054.38;5020441;28;20032;-93
2023/04/04 01:56:12;;;;;;;9.15;3.30;;;;;;;8.95;55.09;94051.78;5009205;28;20056;-92
2023/04/04 01:59:19;;;;;;;10.07;3.25;;;;;;;9.39;55.52;94052.19;5029898;28;20029;-92
2023/04/04 02:02:33;;;;;;;14.18;3.47;;;;;;;9.12;58.00;94061.19;5028049;28;20040;-93
2023/04/04 02:04:59;;;;;;;14.55;4.43;;;;;;;9.18;56.49;94058.28;5037597;28;20083;-92
2023/04/04 02:07:25;;;;;;;13.27;3.80;;;;;;;9.21;56.51;94064.03;5021331;28;20053;-92
2023/04/04 02:09:52;;;;;;;11.93;4.45;;;;;;;8.71;57.55;94054.16;5040539;28;20029;-92
2023/04/04 02:12:17;;;;;;;15.38;3.30;;;;;;;9.53;54.98;94065.50;5021266;28;20405;-92
2023/04/04 02:14:44;;;;;;;13.27;3.13;;;;;;;9.57;54.74;94063.91;5023022;28;20033;-92
2023/04/04 02:17:09;;;;;;;9.20;3.55;;;;;;;9.86;54.28;94061.44;5037210;28;20049;-91
2023/04/04 02:19:35;;;;;;;15.63;3.70;;;;;;;8.91;55.92;94059.38;5022067;28;20316;-92
2023/04/04 02:22:00;;;;;;;10.98;2.90;;;;;;;9.60;53.60;94061.53;5037010;28;20386;-93
2023/04/04 02:24:26;;;;;;;12.88;3.25;;;;;;;9.26;54.06;94064.00;5021188;28;20128;-92
2023/04/04 02:26:51;;;;;;;5.13;2.97;;;;;;;9.52;52.93;94056.09;5024079;28;20024;-92
2023/04/04 02:29:16;;;;;;;10.48;3.65;;;;;;;9.90;51.85;94056.44;5037055;28;20026;-93
2023/04/04 02:31:42;;;;;;;10.52;2.83;;;;;;;9.64;51.72;94053.16;5022735;28;20083;-93
2023/04/04 02:34:07;;;;;;;11.65;3.47;;;;;;;9.99;51.99;94056.66;5020961;28;20033;-92
2023/04/04 02:36:33;;;;;;;9.48;3.03;;;;;;;9.65;53.41;94058.13;5037764;28;20414;-93
2023/04/04 02:38:59;;;;;;;14.07;3.90;;;;;;;9.83;51.94;94063.78;5021166;28;20021;-92
2023/04/04 02:41:25;;;;;;;11.05;3.65;;;;;;;9.53;52.79;94055.03;5036905;28;20060;-92
2023/04/04 02:43:50;;;;;;;9.50;3.20;;;;;;;9.60;52.25;94052.91;5023628;28;20020;-94
2023/04/04 02:46:16;;;;;;;11.63;3.55;;;;;;;9.36;52.79;94050.91;5020453;28;20068;-92
2023/04/04 02:48:42;;;;;;;12.30;2.83;;;;;;;9.26;53.11;94043.09;5056096;28;20025;-91
2023/04/04 02:51:07;;;;;;;9.77;3.72;;;;;;;9.10;53.65;94043.13;5057624;28;20079;-91
2023/04/04 02:53:33;;;;;;;10.63;2.80;;;;;;;9.27;52.30;94047.28;5020959;28;20017;-92
2023/04/04 02:56:01;;;;;;;7.47;2.90;;;;;;;9.08;53.30;94050.47;5020003;28;20025;-92
2023/04/04 02:58:27;;;;;;;13.23;3.90;;;;;;;8.64;53.62;94049.22;5036547;28;20078;-93
2023/04/04 03:00:53;;;;;;;18.08;3.22;;;;;;;8.90;52.77;94044.75;5039985;28;20024;-93
2023/04/04 03:03:18;;;;;;;10.40;3.10;;;;;;;8.98;51.78;94050.47;5036492;28;20025;-93
2023/04/04 03:05:44;;;;;;;12.15;3.08;;;;;;;8.55;53.21;94050.81;5022425;28;20124;-92
2023/04/04 03:08:09;;;;;;;10.65;3.47;;;;;;;8.53;52.87;94048.44;5036589;28;20025;-92
2023/04/04 03:10:35;;;;;;;14.30;3.22;;;;;;;8.75;52.51;94056.00;5037429;28;20132;-92
2023/04/04 03:13:00;;;;;;;18.20;3.97;;;;;;;8.71;51.83;94054.97;5036370;28;20027;-92
2023/04/04 03:15:26;;;;;;;14.23;2.78;;;;;;;8.31;53.17;94052.03;5020032;28;20026;-92
2023/04/04 03:17:52;;;;;;;10.60;4.22;;;;;;;8.59;52.91;94054.44;5057060;28;20027;-92
2023/04/04 03:20:18;;;;;;;16.42;3.20;;;;;;;8.41;52.39;94055.72;5036480;28;20104;-92
2023/04/04 03:22:44;;;;;;;14.98;3.72;;;;;;;8.46;52.37;94050.47;5022124;28;20403;-93
2023/04/04 03:25:10;;;;;;;8.20;2.92;;;;;;;8.94;51.81;94050.22;5057196;28;20108;-92
2023/04/04 03:27:36;;;;;;;8.85;3.28;;;;;;;9.15;50.61;94050.97;5057185;28;20032;-92
2023/04/04 03:30:01;;;;;;;14.10;2.95;;;;;;;9.21;49.92;94049.13;5019717;28;20116;-92
2023/04/04 03:32:27;;;;;;;6.50;2.80;;;;;;;9.25;49.87;94054.59;5019933;28;20029;-94
2023/04/04 03:34:52;;;;;;;11.88;3.55;;;;;;;9.28;49.84;94054.84;5019820;28;20447;-93
2023/04/04 03:37:18;;;;;;;10.57;3.60;;;;;;;9.40;48.84;94053.78;5019817;28;20033;-93
2023/04/04 03:39:44;;;;;;;14.77;2.80;;;;;;;9.39;48.76;94052.19;5038269;28;20030;-93
2023/04/04 03:42:09;;;;;;;6.85;2.65;;;;;;;9.42;48.28;94056.91;5019740;28;20029;-92
2023/04/04 03:44:36;;;;;;;10.02;2.72;;;;;;;8.68;49.40;94052.09;5020727;28;20036;-92
2023/04/04 03:47:02;;;;;;;11.63;3.25;;;;;;;8.99;48.74;94060.69;5019933;28;20029;-92
2023/04/04 03:49:27;;;;;;;9.32;2.47;;;;;;;8.99;48.50;94063.28;5035867;28;20041;-92
2023/04/04 03:51:52;;;;;;;14.23;3.30;;;;;;;8.56;49.13;94054.97;5019705;28;20028;-92
2023/04/04 03:54:18;;;;;;;8.98;2.78;;;;;;;8.97;48.31;94060.16;5016341;28;20026;-93
2023/04/04 03:56:44;;;;;;;13.90;3.38;;;;;;;9.19;48.20;94059.06;5018516;28;20327;-93
2023/04/04 03:59:09;;;;;;;15.05;3.08;;;;;;;9.31;48.26;94063.97;5000323;28;20032;-92
2023/04/04 04:01:35;;;;;;;8.40;3.05;;;;;;;8.83;49.42;94065.13;5017348;28;20026;-92
2023/04/04 04:04:00;;;;;;;7.20;3.30;;;;;;;9.24;47.39;94063.50;4999794;28;20120;-93
2023/04/04 04:06:26;;;;;;;7.80;3.17;;;;;;;9.06;47.58;94065.63;5000114;28;20026;-93
2023/04/04 04:08:52;;;;;;;9.23;2.75;;;;;;;9.16;46.91;94064.81;5005167;28;20422;-92
2023/04/04 04:11:17;;;;;;;8.82;3.20;;;;;;;9.43;46.40;94067.09;5003965;28;20033;-92
2023/04/04 04:13:43;;;;;;;11.55;2.80;;;;;;;9.14;46.74;94064.31;5005456;28;20034;-93
2023/04/04 04:16:08;;;;;;;10.90;2.85;;;;;;;9.01;46.31;94063.00;5003544;28;20032;-92
2023/04/04 04:18:33;;;;;;;11.40;3.05;;;;;;;8.69;46.94;94069.31;5020697;28;20029;-91
2023/04/04 04:21:01;;;;;;;17.52;3.20;;;;;;;8.85;46.46;94063.03;5003385;28;20132;-91
2023/04/04 04:23:27;;;;;;;6.90;3.00;;;;;;;9.16;47.10;94073.44;5019890;28;20029;-92
2023/04/04 04:25:52;;;;;;;12.07;3.03;;;;;;;8.09;47.08;94072.38;5019809;28;20087;-93
2023/04/04 04:28:18;;;;;;;6.45;2.28;;;;;;;8.79;45.63;94073.75;5019708;28;20423;-92
2023/04/04 04:30:44;;;;;;;7.35;2.58;;;;;;;8.90;45.25;94073.50;5021802;28;20041;-92
2023/04/04 04:33:09;;;;;;;9.55;2.90;;;;;;;9.17;44.63;94064.53;5003251;28;20029;-94
2023/04/04 04:35:36;;;;;;;8.65;2.85;;;;;;;9.36;44.97;94071.03;5004139;28;20029;-92
2023/04/04 04:38:02;;;;;;;9.25;2.72;;;;;;;8.74;45.56;94067.50;5019446;28;20128;-93
2023/04/04 04:40:27;;;;;;;9.57;3.10;;;;;;;8.82;45.99;94076.63;5003245;28;20025;-91
2023/04/04 04:42:52;;;;;;;8.25;2.63;;;;;;;7.92;46.29;94076.00;5019415;28;20025;-92
2023/04/04 04:45:18;;;;;;;9.48;2.40;;;;;;;7.54;46.71;94077.97;5002896;28;20040;-92
2023/04/04 04:47:43;;;;;;;10.48;2.65;;;;;;;8.08;45.80;94082.03;5021530;28;20025;-91
2023/04/04 04:50:10;;;;;;;9.35;3.08;;;;;;;8.52;44.70;94085.25;5003312;28;20050;-90
2023/04/04 04:52:36;;;;;;;7.85;3.17;;;;;;;8.53;45.72;94085.00;5004035;28;20026;-91
2023/04/04 04:55:02;;;;;;;8.13;2.30;;;;;;;8.70;44.59;94079.53;5002914;28;20029;-90
2023/04/04 04:57:28;;;;;;;3.78;2.22;;;;;;;8.68;44.94;94080.81;5019116;28;20088;-91
2023/04/04 04:59:53;;;;;;;7.75;3.60;;;;;;;8.68;44.83;94084.22;5002361;28;20124;-90
2023/04/04 05:02:19;;;;;;;6.63;2.30;;;;;;;8.57;45.58;94095.72;5018973;28;20030;-90
2023/04/04 05:04:44;;;;;;;12.65;3.30;;;;;;;8.41;45.69;94089.66;5020948;28;20460;-91
2023/04/04 05:07:11;;;;;;;9.35;2.80;;;;;;;8.39;45.65;94096.97;5002322;28;20088;-91
2023/04/04 05:09:36;;;;;;;11.98;3.47;;;;;;;8.46;45.29;94098.28;5020146;28;20037;-91
2023/04/04 05:12:03;;;;;;;12.60;3.20;;;;;;;7.67;48.96;94106.19;5002867;28;20034;-92
2023/04/04 05:14:28;;;;;;;15.35;2.92;;;;;;;8.12;46.76;94103.97;5018731;28;20030;-92
2023/04/04 05:16:54;;;;;;;7.32;2.97;;;;;;;8.20;45.77;94110.50;5018728;28;20034;-92
2023/04/04 05:19:19;;;;;;;11.38;3.15;;;;;;;8.10;45.65;94116.47;5021513;28;20041;-91
2023/04/04 05:21:44;;;;;;;10.43;2.60;;;;;;;8.42;44.68;94105.06;5040194;28;20036;-91
2023/04/04 05:24:10;;;;;;;11.68;2.92;;;;;;;8.31;47.09;94117.31;5024811;28;20039;-90
2023/04/04 05:26:38;;;;;;;8.38;2.50;;;;;;;8.70;43.96;94117.91;5040991;28;20033;-90
2023/04/04 05:29:09;;;;;;;7.45;2.83;;;;;;;9.01;44.61;94120.50;5023607;28;20034;-91
2023/04/04 05:31:40;;;;;;;18.92;2.53;;;;;;;8.73;44.31;94130.44;5039466;28;20029;-90
2023/04/04 05:34:18;;;;;;;;;;;;;;;;;;;;;
2023/04/04 05:36:48;;;;;;;10.20;2.80;;;;;;;9.14;43.82;94127.81;5041258;28;20431;-91
2023/04/04 05:39:14;;;;;;;10.30;2.80;;;;;;;9.16;43.38;94117.88;5040403;28;20029;-90
2023/04/04 05:41:39;;;;;;;12.40;2.70;;;;;;;9.47;43.10;94130.91;5025651;28;20052;-91
2023/04/04 05:44:14;;;;;;;10.52;2.35;;;;;;;9.34;42.28;94126.22;5006052;28;20034;-90
2023/04/04 05:46:55;;;;;;;;;;;;;;;;;;;;;
2023/04/04 05:49:21;;;;;;;8.70;3.05;;;;;;;9.47;44.13;94117.81;5018380;28;20034;-91
2023/04/04 05:51:46;;;;;;;13.35;2.63;;;;;;;9.16;44.00;94125.69;5004229;28;20029;-90
2023/04/04 05:54:12;;;;;;;9.60;2.95;;;;;;;9.00;44.85;94121.53;5017799;28;20120;-92
2023/04/04 05:56:47;;;;;;;;;;;;;;;;;;;;;
2023/04/04 05:59:23;;;;;;;;;;;;;;;;;;;;;
2023/04/04 06:01:49;;;;;;;7.68;3.05;;;;;;;8.74;44.40;94118.94;5021507;28;20036;-92
2023/04/04 06:04:15;;;;;;;13.57;2.80;;;;;;;9.08;44.28;94123.63;5003150;28;20033;-92
2023/04/04 06:06:42;;;;;;;9.48;2.90;;;;;;;9.18;44.79;94123.63;5005823;28;20096;-91
2023/04/04 06:09:08;;;;;;;14.02;2.83;;;;;;;9.68;44.78;94130.81;5004656;28;20038;-92
2023/04/04 06:11:33;;;;;;;20.35;3.65;;;;;;;9.69;44.38;94127.16;5020060;28;20030;-91
2023/04/04 06:14:09;;;;;;;;;;;;;;;;;;;;;
2023/04/04 06:16:37;;;;;;;9.02;2.50;;;;;;;9.84;44.90;94133.38;5019668;28;20025;-91
2023/04/04 06:19:03;;;;;;;11.50;2.65;;;;;;;9.92;43.73;94135.47;5021046;28;20048;-92
2023/04/04 06:21:28;;;;;;;12.68;2.67;;;;;;;9.73;42.79;94130.81;5001847;28;20029;-93
2023/04/04 06:23:53;;;;;;;10.35;2.72;;;;;;;9.44;43.36;94138.47;5001597;28;20026;-90
2023/04/04 06:26:19;;;;;;;11.98;2.63;;;;;;;9.44;42.51;94138.47;5001672;28;20041;-91
2023/04/04 06:29:00;;;;;;;;;;;;;;;;;;;;;
2023/04/04 06:31:26;;;;;;;10.55;2.67;;;;;;;9.78;41.57;94131.84;5017193;28;20026;-91
2023/04/04 06:33:51;;;;;;;9.05;4.05;;;;;;;9.88;42.93;94140.44;5004131;28;20569;-91
2023/04/04 06:36:17;;;;;;;14.48;2.92;;;;;;;10.15;43.85;94138.47;5000818;28;20036;-91
2023/04/04 06:38:42;;;;;;;8.20;2.65;;;;;;;9.70;42.02;94136.56;5019182;28;20132;-91
2023/04/04 06:41:08;;;;;;;8.30;2.35;;;;;;;9.82;41.55;94144.09;5000593;28;20036;-92
2023/04/04 06:43:33;;;;;;;5.43;2.33;;;;;;;9.87;40.75;94144.09;5017714;28;20033;-91
2023/04/04 06:45:58;;;;;;;12.70;3.00;;;;;;;9.88;40.87;94139.63;5017199;28;20033;-91
2023/04/04 06:48:24;;;;;;;11.85;2.45;;;;;;;9.84;42.04;94139.41;5000987;28;20030;-91
2023/04/04 06:50:50;;;;;;;6.55;2.50;;;;;;;10.51;42.95;94140.16;5003394;28;20037;-91
2023/04/04 06:53:15;;;;;;;9.00;2.40;;;;;;;10.32;41.85;94146.75;5017167;28;20426;-92
2023/04/04 06:55:41;;;;;;;7.95;2.17;;;;;;;10.72;40.93;94138.16;5018644;28;20034;-91
2023/04/04 06:58:06;;;;;;;7.03;2.10;;;;;;;11.02;41.37;94139.00;5000592;28;20093;-92
2023/04/04 07:00:31;;;;;;;5.93;1.80;;;;;;;10.69;39.16;94136.09;5000933;28;20034;-93
2023/04/04 07:02:58;;;;;;;10.50;2.42;;;;;;;11.06;39.27;94145.25;5016841;28;20033;-92
2023/04/04 07:05:23;;;;;;;12.02;2.40;;;;;;;10.55;40.71;94144.56;5000663;28;20030;-93
2023/04/04 07:07:55;;;;;;;5.32;2.22;;;;;;;9.27;41.84;94150.03;5003256;28;20048;-92
2023/04/04 07:10:24;;;;;;;5.10;2.20;;;;;;;10.35;39.59;94144.69;5000290;28;20079;-93
2023/04/04 07:12:50;;;;;;;6.72;1.85;;;;;;;9.85;40.25;94142.81;5003420;28;20033;-91
2023/04/04 07:15:16;;;;;;;6.75;2.42;;;;;;;10.28;38.54;94142.34;5000163;28;20037;-92
2023/04/04 07:17:42;;;;;;;6.22;2.28;;;;;;;10.95;39.85;94143.78;5002288;28;20041;-92
2023/04/04 07:20:07;;;;;;;13.32;2.55;;;;;;;10.59;40.42;94148.22;5000479;28;20025;-92
2023/04/04 07:22:38;;;;;;;9.15;2.67;;;;;;;11.13;38.22;94148.34;5000777;28;20041;-93
2023/04/04 07:25:04;;;;;;;10.02;2.40;;;;;;;10.05;38.41;94139.31;5000488;28;20053;-92
2023/04/04 07:27:30;;;;;;;7.63;2.30;;;;;;;10.77;39.23;94142.59;5016600;28;20076;-92
2023/04/04 07:29:55;;;;;;;7.10;2.17;;;;;;;10.70;38.34;94150.75;5000071;28;20034;-92
2023/04/04 07:32:22;;;;;;;6.78;2.03;;;;;;;10.62;37.85;94149.50;5016643;28;20029;-93
2023/04/04 07:34:48;;;;;;;5.82;2.20;;;;;;;10.80;37.29;94157.78;5002801;28;20107;-91
2023/04/04 07:37:14;;;;;;;7.40;2.15;;;;;;;10.84;37.14;94156.94;5000252;28;20396;-91
2023/04/04 07:39:39;;;;;;;6.25;2.17;;;;;;;11.20;38.97;94161.13;5001687;28;20026;-93
2023/04/04 07:42:05;;;;;;;8.57;2.42;;;;;;;11.30;39.00;94160.25;5000201;28;20419;-92
2023/04/04 07:44:30;;;;;;;6.93;2.22;;;;;;;11.58;39.89;94165.75;5020221;28;20041;-91
2023/04/04 07:46:56;;;;;;;7.82;2.30;;;;;;;10.07;37.17;94166.00;5020627;28;20034;-93
2023/04/04 07:49:21;;;;;;;4.13;2.13;;;;;;;10.22;36.42;94159.94;5020101;28;20432;-92
2023/04/04 07:51:47;;;;;;;5.15;1.95;;;;;;;9.99;37.41;94167.34;5006637;28;20026;-93
2023/04/04 07:54:13;;;;;;;8.27;2.08;;;;;;;10.26;36.70;94166.19;5004056;28;20152;-91
2023/04/04 07:56:39;;;;;;;6.05;2.33;;;;;;;9.88;37.15;94174.47;5005261;28;20112;-91
2023/04/04 07:59:04;;;;;;;7.40;2.20;;;;;;;10.10;37.99;94167.31;5003985;28;20030;-91
2023/04/04 08:01:30;;;;;;;9.93;2.40;;;;;;;10.78;38.99;94165.13;5020347;28;20104;-91
2023/04/04 08:03:55;;;;;;;5.10;1.98;;;;;;;9.77;37.38;94170.31;5004146;28;20044;-93
2023/04/04 08:06:21;;;;;;;8.45;2.00;;;;;;;9.29;36.80;94181.13;5003760;28;20168;-91
2023/04/04 08:08:55;;;;;;;7.72;1.65;;;;;;;9.55;39.01;94178.47;5006280;28;20033;-92
2023/04/04 08:11:20;;;;;;;5.90;2.22;;;;;;;9.70;36.89;94182.91;5003760;28;20022;-92
2023/04/04 08:13:45;;;;;;;7.35;2.30;;;;;;;8.65;39.53;94183.97;5006173;28;20048;-92
2023/04/04 08:16:11;;;;;;;7.25;2.13;;;;;;;9.41;39.00;94171.16;5003580;28;20037;-92
2023/04/04 08:18:36;;;;;;;4.60;2.03;;;;;;;8.85;36.76;94161.53;5004759;28;20033;-91
2023/04/04 08:21:02;;;;;;;5.32;1.83;;;;;;;9.29;39.13;94174.06;5003353;28;20385;-91
2023/04/04 08:23:28;;;;;;;2.92;1.92;;;;;;;9.38;37.41;94176.94;5003557;28;20030;-92
2023/04/04 08:25:54;;;;;;;5.07;2.15;;;;;;;9.53;38.74;94168.25;5006728;28;20415;-91
2023/04/04 08:28:20;;;;;;;6.93;2.50;;;;;;;10.15;40.11;94169.91;5006638;28;20030;-92
2023/04/04 08:30:46;;;;;;;7.00;2.25;;;;;;;10.42;37.22;94182.63;5022916;28;20124;-92
2023/04/04 08:33:11;;;;;;;8.98;2.20;;;;;;;9.87;36.06;94179.94;5003361;28;20034;-92
2023/04/04 08:35:36;;;;;;;9.20;2.30;;;;;;;9.66;37.34;94180.00;5021119;28;20343;-92
2023/04/04 08:38:28;;;;;;;4.93;2.30;;;;;;;10.95;36.00;94176.00;5019434;28;20033;-92
2023/04/04 08:40:54;;;;;;;10.57;2.55;;;;;;;10.57;36.68;94183.59;5019378;28;20343;-92
2023/04/04 08:43:20;;;;;;;5.50;1.85;;;;;;;9.39;35.83;94186.34;5003139;28;20076;-92
2023/04/04 08:45:45;;;;;;;5.22;2.13;;;;;;;9.51;35.83;94175.59;5005599;28;20042;-92
2023/04/04 08:48:13;;;;;;;4.53;1.90;;;;;;;9.87;35.78;94180.75;5003134;28;20080;-92
2023/04/04 08:50:41;;;;;;;5.15;2.08;;;;;;;10.27;36.82;94178.22;5004211;28;20044;-92
2023/04/04 08:53:08;;;;;;;6.60;2.20;;;;;;;10.54;36.89;94181.50;5003073;28;20436;-92
2023/04/04 08:55:33;;;;;;;8.45;2.33;;;;;;;10.22;36.52;94183.50;5019538;28;20482;-92
2023/04/04 08:57:59;;;;;;;7.13;2.30;;;;;;;10.32;36.59;94180.03;5003041;28;20056;-92
2023/04/04 09:00:25;;;;;;;13.98;2.28;;;;;;;10.56;34.77;94164.47;5002779;28;20030;-92
2023/04/04 09:03:09;;;;;;;5.50;2.33;;;;;;;11.87;38.71;94178.84;5006109;28;20058;-94
2023/04/04 09:05:36;;;;;;;6.30;2.40;;;;;;;10.50;36.04;94181.28;5020288;28;20502;-93
2023/04/04 09:08:04;;;;;;;4.45;2.33;;;;;;;11.22;39.06;94184.47;5003126;28;20069;-93
2023/04/04 09:10:29;;;;;;;4.63;2.05;;;;;;;11.23;34.58;94188.66;5003109;28;20065;-91
2023/04/04 09:12:55;;;;;;;5.25;2.13;;;;;;;10.29;34.70;94186.59;5002948;28;20040;-92
2023/04/04 09:15:21;;;;;;;5.53;1.95;;;;;;;10.17;35.29;94191.34;5002682;28;20030;-93
2023/04/04 09:17:47;;;;;;;6.28;2.60;;;;;;;9.86;35.17;94181.00;5005218;28;20034;-92
2023/04/04 09:20:45;;;;;;;5.43;1.88;;;;;;;9.76;34.42;94193.06;5002496;28;20317;-93
2023/04/04 09:23:12;;;;;;;8.60;2.00;;;;;;;9.70;37.11;94181.03;4986932;28;20064;-92
2023/04/04 09:25:44;;;;;;;3.83;1.85;;;;;;;10.33;34.31;94192.06;5021363;28;20029;-93
2023/04/04 09:28:14;;;;;;;5.75;1.67;;;;;;;10.24;33.46;94188.44;5022290;28;20172;-92
2023/04/04 09:30:40;;;;;;;4.50;1.92;;;;;;;10.58;33.75;94177.31;5023704;28;20038;-91
2023/04/04 09:33:06;;;;;;;6.28;1.80;;;;;;;10.47;32.09;94184.44;5021516;28;20029;-91
2023/04/04 09:35:57;;;;;;;4.70;1.63;;;;;;;12.07;33.75;94177.06;5022474;28;20036;-91
2023/04/04 09:38:23;;;;;;;5.03;1.38;;;;;;;11.58;32.54;94169.19;5008338;28;20048;-93
2023/04/04 09:40:48;;;;;;;5.50;1.90;;;;;;;11.11;31.43;94168.00;5041034;28;20028;-91
2023/04/04 09:43:14;;;;;;;6.15;1.77;;;;;;;11.81;31.83;94173.94;5021732;28;20414;-92
2023/04/04 09:45:43;;;;;;;6.05;1.77;;;;;;;10.26;31.21;94179.28;5023378;28;20033;-92
2023/04/04 09:48:09;;;;;;;4.57;1.70;;;;;;;11.30;33.51;94182.03;5021478;28;20033;-92
2023/04/04 09:50:35;;;;;;;4.72;1.63;;;;;;;11.73;30.94;94168.22;5038884;28;20405;-93
2023/04/04 09:53:01;;;;;;;3.13;1.60;;;;;;;12.61;31.52;94184.81;5021749;28;20406;-93
2023/04/04 09:55:36;;;;;;;3.42;1.48;;;;;;;11.73;33.17;94177.97;5037825;28;20036;-92
2023/04/04 09:58:11;;;;;;;5.55;1.80;;;;;;;10.18;31.32;94185.06;5021451;28;20030;-92
2023/04/04 10:00:40;;;;;;;2.30;1.40;;;;;;;11.26;32.96;94177.59;5022530;28;20033;-93
2023/04/04 10:03:06;;;;;;;5.78;1.73;;;;;;;10.40;30.64;94171.63;5021833;28;20034;-93
2023/04/04 10:05:32;;;;;;;3.38;1.75;;;;;;;10.32;30.82;94180.81;5020933;28;20075;-92
2023/04/04 10:07:58;;;;;;;7.53;2.38;;;;;;;10.62;30.45;94182.81;5021331;28;20116;-92
2023/04/04 10:10:25;;;;;;;14.48;1.98;;;;;;;10.19;31.20;94182.19;5021340;28;20523;-92
2023/04/04 10:12:51;;;;;;;7.38;1.55;;;;;;;9.68;30.49;94179.72;5024791;28;20033;-91
2023/04/04 10:15:17;;;;;;;6.60;1.58;;;;;;;11.07;30.69;94180.91;5021300;28;20025;-92
2023/04/04 10:17:43;;;;;;;3.83;1.67;;;;;;;11.83;30.31;94179.69;5023202;28;20431;-92
2023/04/04 10:20:09;;;;;;;5.03;1.50;;;;;;;11.43;30.04;94187.69;5020942;28;20423;-93
2023/04/04 10:22:35;;;;;;;7.70;1.92;;;;;;;11.76;34.36;94179.22;5022292;28;20450;-93
2023/04/04 10:25:02;;;;;;;5.38;1.63;;;;;;;11.15;29.65;94193.41;5020955;28;20029;-92
2023/04/04 10:27:27;;;;;;;3.38;1.95;;;;;;;10.64;28.53;94181.47;5037170;28;20458;-92
2023/04/04 10:29:53;;;;;;;6.07;1.63;;;;;;;10.57;30.09;94196.72;5024274;28;20029;-92
2023/04/04 10:32:58;;;;;;;4.65;1.80;;;;;;;11.01;28.59;94177.53;5024585;28;20333;-91
2023/04/04 10:35:24;;;;;;;7.22;2.00;;;;;;;10.31;29.12;94194.94;5003868;28;20516;-92
2023/04/04 10:37:56;;;;;;;3.55;1.73;;;;;;;10.64;30.16;94181.47;5023952;28;20378;-92
2023/04/04 10:40:24;;;;;;;6.43;1.90;;;;;;;11.73;33.80;94183.97;5020824;28;20028;-92
2023/04/04 10:42:50;;;;;;;2.33;1.65;;;;;;;12.12;30.68;94178.88;5023668;28;20076;-92
2023/04/04 10:45:16;;;;;;;9.80;1.92;;;;;;;11.89;29.03;94181.19;5020513;28;20431;-92
2023/04/04 10:47:43;;;;;;;2.95;1.42;;;;;;;11.38;29.69;94192.97;5037436;28;20033;-92
2023/04/04 10:50:10;;;;;;;5.68;1.63;;;;;;;11.92;27.93;94187.72;5020325;28;20030;-92
2023/04/04 10:52:38;;;;;;;4.15;1.90;;;;;;;12.07;31.59;94192.06;5021600;28;20036;-92
2023/04/04 10:55:05;;;;;;;2.92;1.63;;;;;;;11.37;28.89;94192.19;5020573;28;20021;-92
2023/04/04 10:57:32;;;;;;;5.97;1.60;;;;;;;10.50;31.60;94188.34;5020741;28;20027;-92
2023/04/04 11:00:09;;;;;;;5.30;1.45;;;;;;;12.12;29.39;94182.28;5020361;28;20139;-93
2023/04/04 11:02:54;;;;;;;6.07;1.90;;;;;;;10.97;29.43;94176.50;5021577;28;20036;-92
2023/04/04 11:05:48;;;;;;;9.13;1.65;;;;;;;10.88;30.34;94181.56;5020314;28;20048;-92
2023/04/04 11:08:24;;;;;;;14.35;2.40;;;;;;;11.61;30.45;94175.69;5052052;28;20453;-92
2023/04/04 11:10:52;;;;;;;7.05;1.48;;;;;;;12.77;30.84;94198.53;5023191;28;20036;-93
2023/04/04 11:13:22;;;;;;;4.93;1.80;;;;;;;12.65;31.01;94183.16;5020145;28;20344;-91
2023/04/04 11:16:03;;;;;;;6.45;1.95;;;;;;;11.34;31.48;94184.88;5023447;28;20119;-93
2023/04/04 11:18:41;;;;;;;6.53;1.60;;;;;;;12.63;30.67;94197.69;5020728;28;20029;-92
2023/04/04 11:21:13;;;;;;;5.43;1.70;;;;;;;13.26;30.38;94174.63;5036743;28;20032;-92
2023/04/04 11:23:48;;;;;;;6.57;1.50;;;;;;;12.32;30.48;94185.72;5021554;28;20075;-93
2023/04/04 11:26:32;;;;;;;3.42;1.90;;;;;;;13.10;31.04;94184.63;5036242;28;20034;-92
2023/04/04 11:29:07;;;;;;;2.97;1.73;;;;;;;11.73;30.87;94191.84;5036353;28;20038;-93
2023/04/04 11:31:34;;;;;;;10.23;2.53;;;;;;;12.68;31.99;94189.72;5020878;28;20581;-93
2023/04/04 11:34:06;;;;;;;10.82;1.92;;;;;;;13.18;30.89;94173.44;5019845;28;20028;-93
2023/04/04 11:36:38;;;;;;;4.65;2.00;;;;;;;13.32;29.86;94180.59;5020523;28;20124;-93
2023/04/04 11:39:14;;;;;;;8.60;1.90;;;;;;;13.54;30.23;94185.25;5036181;28;20026;-92
2023/04/04 11:42:04;;;;;;;6.03;2.03;;;;;;;12.20;31.10;94173.00;5037843;28;20021;-93
2023/04/04 11:44:31;;;;;;;4.55;1.90;;;;;;;13.49;29.63;94169.56;5020051;28;20022;-91
2023/04/04 11:47:08;;;;;;;4.45;1.50;;;;;;;12.00;28.19;94174.75;5019801;28;20044;-92